sensor_id;sensor_type;location;lat;lon;timestamp;pressure;altitude;pressure_sealevel;temperature
42197;BMP280;27866;48.146;17.098;2023-03-01T00:02:44;100691.25;;;4.29
42197;BMP280;27866;48.146;17.098;2023-03-01T00:06:55;100689.59;;;4.54
42197;BMP280;27866;48.146;17.098;2023-03-01T00:11:14;100685.25;;;4.83
42197;BMP280;27866;48.146;17.098;2023-03-01T00:15:25;100682.19;;;4.97
42197;BMP280;27866;48.146;17.098;2023-03-01T00:19:36;100689.16;;;5.19
42197;BMP280;27866;48.146;17.098;2023-03-01T00:23:49;100696.28;;;5.35
42197;BMP280;27866;48.146;17.098;2023-03-01T00:28:00;100693.22;;;5.49
42197;BMP280;27866;48.146;17.098;2023-03-01T00:32:11;100696.25;;;5.60
42197;BMP280;27866;48.146;17.098;2023-03-01T00:36:26;100694.31;;;5.68
42197;BMP280;27866;48.146;17.098;2023-03-01T00:40:38;100692.97;;;5.80
42197;BMP280;27866;48.146;17.098;2023-03-01T00:44:49;100687.34;;;5.93
42197;BMP280;27866;48.146;17.098;2023-03-01T00:49:00;100689.19;;;5.90
42197;BMP280;27866;48.146;17.098;2023-03-01T00:53:13;100688.53;;;5.85
42197;BMP280;27866;48.146;17.098;2023-03-01T00:57:24;100680.91;;;6.05
42197;BMP280;27866;48.146;17.098;2023-03-01T01:01:36;100682.81;;;6.22
42197;BMP280;27866;48.146;17.098;2023-03-01T01:05:51;100670.44;;;6.33
42197;BMP280;27866;48.146;17.098;2023-03-01T01:10:02;100681.63;;;6.52
42197;BMP280;27866;48.146;17.098;2023-03-01T01:14:14;100682.81;;;6.65
42197;BMP280;27866;48.146;17.098;2023-03-01T01:18:25;100664.63;;;6.69
42197;BMP280;27866;48.146;17.098;2023-03-01T01:22:37;100661.03;;;6.73
42197;BMP280;27866;48.146;17.098;2023-03-01T01:26:48;100661.53;;;6.82
42197;BMP280;27866;48.146;17.098;2023-03-01T01:30:59;100650.91;;;6.90
42197;BMP280;27866;48.146;17.098;2023-03-01T01:35:11;100647.38;;;6.92
42197;BMP280;27866;48.146;17.098;2023-03-01T01:39:22;100645.53;;;6.95
42197;BMP280;27866;48.146;17.098;2023-03-01T01:43:38;100640.06;;;7.03
42197;BMP280;27866;48.146;17.098;2023-03-01T01:47:57;100634.56;;;7.11
42197;BMP280;27866;48.146;17.098;2023-03-01T01:56:31;100632.81;;;7.31
42197;BMP280;27866;48.146;17.098;2023-03-01T02:00:43;100620.97;;;7.27
42197;BMP280;27866;48.146;17.098;2023-03-01T02:05:09;100629.78;;;7.41
42197;BMP280;27866;48.146;17.098;2023-03-01T02:09:22;100622.91;;;7.42
42197;BMP280;27866;48.146;17.098;2023-03-01T02:13:34;100609.81;;;7.46
42197;BMP280;27866;48.146;17.098;2023-03-01T02:17:46;100614.78;;;7.51
42197;BMP280;27866;48.146;17.098;2023-03-01T02:22:18;100616.41;;;7.53
42197;BMP280;27866;48.146;17.098;2023-03-01T02:26:42;100620.19;;;7.64
42197;BMP280;27866;48.146;17.098;2023-03-01T02:30:56;100613.22;;;7.66
42197;BMP280;27866;48.146;17.098;2023-03-01T02:35:25;100608.75;;;7.69
42197;BMP280;27866;48.146;17.098;2023-03-01T02:39:46;100607.03;;;7.70
42197;BMP280;27866;48.146;17.098;2023-03-01T02:43:58;100602.75;;;7.69
42197;BMP280;27866;48.146;17.098;2023-03-01T02:48:09;100595.75;;;7.72
42197;BMP280;27866;48.146;17.098;2023-03-01T02:52:45;100601.97;;;7.67
42197;BMP280;27866;48.146;17.098;2023-03-01T02:56:59;100602.91;;;7.66
42197;BMP280;27866;48.146;17.098;2023-03-01T03:01:14;100594.22;;;7.68
42197;BMP280;27866;48.146;17.098;2023-03-01T03:05:30;100597.56;;;7.70
42197;BMP280;27866;48.146;17.098;2023-03-01T03:09:42;100600.31;;;7.66
42197;BMP280;27866;48.146;17.098;2023-03-01T03:13:54;100600.31;;;7.66
42197;BMP280;27866;48.146;17.098;2023-03-01T03:18:10;100591.66;;;7.67
42197;BMP280;27866;48.146;17.098;2023-03-01T03:22:21;100595.25;;;7.65
42197;BMP280;27866;48.146;17.098;2023-03-01T03:26:33;100586.81;;;7.79
42197;BMP280;27866;48.146;17.098;2023-03-01T03:30:44;100590.31;;;7.78
42197;BMP280;27866;48.146;17.098;2023-03-01T03:34:56;100582.50;;;7.80
42197;BMP280;27866;48.146;17.098;2023-03-01T03:39:07;100583.91;;;7.86
42197;BMP280;27866;48.146;17.098;2023-03-01T03:43:22;100580.28;;;7.90
42197;BMP280;27866;48.146;17.098;2023-03-01T03:47:33;100580.28;;;7.90
42197;BMP280;27866;48.146;17.098;2023-03-01T03:51:45;100573.47;;;7.89
42197;BMP280;27866;48.146;17.098;2023-03-01T03:55:57;100575.31;;;7.86
42197;BMP280;27866;48.146;17.098;2023-03-01T04:00:11;100572.66;;;7.69
42197;BMP280;27866;48.146;17.098;2023-03-01T04:04:26;100579.16;;;7.78
42197;BMP280;27866;48.146;17.098;2023-03-01T04:08:37;100582.38;;;7.82
42197;BMP280;27866;48.146;17.098;2023-03-01T04:12:48;100574.00;;;7.78
42197;BMP280;27866;48.146;17.098;2023-03-01T04:16:59;100567.44;;;7.71
42197;BMP280;27866;48.146;17.098;2023-03-01T04:21:12;100572.66;;;7.69
42197;BMP280;27866;48.146;17.098;2023-03-01T04:25:24;100576.72;;;7.75
42197;BMP280;27866;48.146;17.098;2023-03-01T04:29:37;100573.88;;;7.81
42197;BMP280;27866;48.146;17.098;2023-03-01T04:33:54;100569.69;;;7.78
42197;BMP280;27866;48.146;17.098;2023-03-01T04:38:06;100578.06;;;7.83
42197;BMP280;27866;48.146;17.098;2023-03-01T04:42:17;100572.53;;;7.90
42197;BMP280;27866;48.146;17.098;2023-03-01T04:46:29;100568.13;;;7.94
42197;BMP280;27866;48.146;17.098;2023-03-01T04:50:40;100576.41;;;8.00
42197;BMP280;27866;48.146;17.098;2023-03-01T04:54:51;100580.69;;;8.01
42197;BMP280;27866;48.146;17.098;2023-03-01T04:59:02;100578.88;;;8.03
42197;BMP280;27866;48.146;17.098;2023-03-01T05:03:16;100586.03;;;8.14
42197;BMP280;27866;48.146;17.098;2023-03-01T05:07:30;100582.28;;;8.21
42197;BMP280;27866;48.146;17.098;2023-03-01T05:11:42;100564.34;;;8.18
42197;BMP280;27866;48.146;17.098;2023-03-01T05:16:01;100572.38;;;8.12
42197;BMP280;27866;48.146;17.098;2023-03-01T05:20:13;100571.19;;;8.19
42197;BMP280;27866;48.146;17.098;2023-03-01T05:24:24;100573.91;;;8.16
42197;BMP280;27866;48.146;17.098;2023-03-01T05:28:36;100576.47;;;8.16
42197;BMP280;27866;48.146;17.098;2023-03-01T05:32:50;100574.91;;;8.14
42197;BMP280;27866;48.146;17.098;2023-03-01T05:37:06;100574.16;;;8.10
42197;BMP280;27866;48.146;17.098;2023-03-01T05:41:18;100582.56;;;8.15
42197;BMP280;27866;48.146;17.098;2023-03-01T05:45:29;100583.03;;;8.23
42197;BMP280;27866;48.146;17.098;2023-03-01T05:49:41;100584.56;;;8.27
42197;BMP280;27866;48.146;17.098;2023-03-01T05:53:52;100597.47;;;8.27
42197;BMP280;27866;48.146;17.098;2023-03-01T05:58:07;100607.63;;;8.30
42197;BMP280;27866;48.146;17.098;2023-03-01T06:02:18;100603.13;;;8.35
42197;BMP280;27866;48.146;17.098;2023-03-01T06:06:34;100589.16;;;8.39
42197;BMP280;27866;48.146;17.098;2023-03-01T06:10:46;100598.38;;;8.44
42197;BMP280;27866;48.146;17.098;2023-03-01T06:14:59;100606.78;;;8.47
42197;BMP280;27866;48.146;17.098;2023-03-01T06:19:10;100602.59;;;8.63
42197;BMP280;27866;48.146;17.098;2023-03-01T06:23:22;100592.94;;;8.66
42197;BMP280;27866;48.146;17.098;2023-03-01T06:27:34;100598.41;;;8.77
42197;BMP280;27866;48.146;17.098;2023-03-01T06:31:45;100608.25;;;8.87
42197;BMP280;27866;48.146;17.098;2023-03-01T06:35:56;100614.78;;;8.94
42197;BMP280;27866;48.146;17.098;2023-03-01T06:40:09;100621.94;;;9.05
42197;BMP280;27866;48.146;17.098;2023-03-01T06:44:22;100617.97;;;9.31
42197;BMP280;27866;48.146;17.098;2023-03-01T06:48:34;100618.06;;;9.46
42197;BMP280;27866;48.146;17.098;2023-03-01T06:52:46;100619.34;;;9.55
42197;BMP280;27866;48.146;17.098;2023-03-01T06:56:57;100608.28;;;9.68
42197;BMP280;27866;48.146;17.098;2023-03-01T07:01:09;100614.03;;;9.74
42197;BMP280;27866;48.146;17.098;2023-03-01T07:05:21;100607.00;;;9.76
42197;BMP280;27866;48.146;17.098;2023-03-01T07:09:33;100609.94;;;9.85
42197;BMP280;27866;48.146;17.098;2023-03-01T07:13:44;100604.22;;;9.95
42197;BMP280;27866;48.146;17.098;2023-03-01T07:17:56;100610.19;;;9.81
42197;BMP280;27866;48.146;17.098;2023-03-01T07:22:07;100606.25;;;9.74
42197;BMP280;27866;48.146;17.098;2023-03-01T07:26:20;100604.66;;;10.03
42197;BMP280;27866;48.146;17.098;2023-03-01T07:30:31;100600.00;;;10.39
42197;BMP280;27866;48.146;17.098;2023-03-01T07:34:43;100598.50;;;10.50
42197;BMP280;27866;48.146;17.098;2023-03-01T07:38:54;100600.28;;;10.93
42197;BMP280;27866;48.146;17.098;2023-03-01T07:43:06;100597.81;;;11.62
42197;BMP280;27866;48.146;17.098;2023-03-01T07:47:17;100594.94;;;11.67
42197;BMP280;27866;48.146;17.098;2023-03-01T07:51:29;100592.63;;;11.89
42197;BMP280;27866;48.146;17.098;2023-03-01T07:55:40;100585.00;;;12.14
42197;BMP280;27866;48.146;17.098;2023-03-01T07:59:51;100597.50;;;12.34
42197;BMP280;27866;48.146;17.098;2023-03-01T08:04:02;100597.25;;;12.25
42197;BMP280;27866;48.146;17.098;2023-03-01T08:08:17;100587.72;;;11.99
42197;BMP280;27866;48.146;17.098;2023-03-01T08:12:29;100592.63;;;12.03
42197;BMP280;27866;48.146;17.098;2023-03-01T08:16:40;100593.69;;;12.26
42197;BMP280;27866;48.146;17.098;2023-03-01T08:20:52;100601.50;;;12.26
42197;BMP280;27866;48.146;17.098;2023-03-01T08:25:03;100586.81;;;12.52
42197;BMP280;27866;48.146;17.098;2023-03-01T08:29:15;100586.00;;;13.03
42197;BMP280;27866;48.146;17.098;2023-03-01T08:33:26;100585.56;;;13.47
42197;BMP280;27866;48.146;17.098;2023-03-01T08:37:37;100587.22;;;13.47
42197;BMP280;27866;48.146;17.098;2023-03-01T08:41:49;100578.38;;;13.62
42197;BMP280;27866;48.146;17.098;2023-03-01T08:46:00;100581.28;;;13.70
42197;BMP280;27866;48.146;17.098;2023-03-01T08:50:12;100577.59;;;15.46
42197;BMP280;27866;48.146;17.098;2023-03-01T08:54:23;100574.03;;;19.56
42197;BMP280;27866;48.146;17.098;2023-03-01T08:58:36;100570.75;;;20.86
42197;BMP280;27866;48.146;17.098;2023-03-01T09:02:47;100545.59;;;23.52
42197;BMP280;27866;48.146;17.098;2023-03-01T09:06:59;100562.31;;;21.25
42197;BMP280;27866;48.146;17.098;2023-03-01T09:11:14;100540.31;;;25.02
42197;BMP280;27866;48.146;17.098;2023-03-01T09:15:27;100534.03;;;26.60
42197;BMP280;27866;48.146;17.098;2023-03-01T09:19:38;100537.69;;;25.31
42197;BMP280;27866;48.146;17.098;2023-03-01T09:23:50;100525.06;;;24.82
42197;BMP280;27866;48.146;17.098;2023-03-01T09:28:01;100529.72;;;25.31
42197;BMP280;27866;48.146;17.098;2023-03-01T09:32:12;100524.09;;;27.84
42197;BMP280;27866;48.146;17.098;2023-03-01T09:36:24;100524.41;;;27.28
42197;BMP280;27866;48.146;17.098;2023-03-01T09:40:43;100501.72;;;28.71
42197;BMP280;27866;48.146;17.098;2023-03-01T09:45:18;100508.47;;;28.28
42197;BMP280;27866;48.146;17.098;2023-03-01T09:49:35;100493.28;;;29.88
42197;BMP280;27866;48.146;17.098;2023-03-01T09:53:49;100465.22;;;28.84
42197;BMP280;27866;48.146;17.098;2023-03-01T10:02:47;100471.13;;;18.13
42197;BMP280;27866;48.146;17.098;2023-03-01T10:15:44;100481.47;;;14.86
42197;BMP280;27866;48.146;17.098;2023-03-01T10:20:26;100473.50;;;14.31
42197;BMP280;27866;48.146;17.098;2023-03-01T10:24:38;100475.63;;;13.91
42197;BMP280;27866;48.146;17.098;2023-03-01T10:29:08;100475.66;;;13.31
42197;BMP280;27866;48.146;17.098;2023-03-01T10:33:34;100471.91;;;13.23
42197;BMP280;27866;48.146;17.098;2023-03-01T10:38:06;100464.63;;;13.28
42197;BMP280;27866;48.146;17.098;2023-03-01T10:42:32;100450.78;;;13.15
42197;BMP280;27866;48.146;17.098;2023-03-01T10:46:44;100449.03;;;13.16
42197;BMP280;27866;48.146;17.098;2023-03-01T10:51:07;100441.53;;;13.11
42197;BMP280;27866;48.146;17.098;2023-03-01T10:55:34;100420.91;;;13.32
42197;BMP280;27866;48.146;17.098;2023-03-01T11:00:22;100427.69;;;13.35
42197;BMP280;27866;48.146;17.098;2023-03-01T11:04:33;100415.59;;;13.46
42197;BMP280;27866;48.146;17.098;2023-03-01T11:08:47;100415.06;;;13.41
42197;BMP280;27866;48.146;17.098;2023-03-01T11:13:17;100404.28;;;13.70
42197;BMP280;27866;48.146;17.098;2023-03-01T11:17:31;100401.00;;;14.25
42197;BMP280;27866;48.146;17.098;2023-03-01T11:22:01;100399.97;;;15.05
42197;BMP280;27866;48.146;17.098;2023-03-01T11:26:13;100399.41;;;16.48
42197;BMP280;27866;48.146;17.098;2023-03-01T11:35:28;100378.50;;;20.01
42197;BMP280;27866;48.146;17.098;2023-03-01T11:40:19;100377.75;;;20.68
42197;BMP280;27866;48.146;17.098;2023-03-01T11:44:36;100381.63;;;19.26
42197;BMP280;27866;48.146;17.098;2023-03-01T11:49:40;100381.31;;;18.85
42197;BMP280;27866;48.146;17.098;2023-03-01T11:54:27;100383.94;;;19.73
42197;BMP280;27866;48.146;17.098;2023-03-01T11:59:21;100388.91;;;18.69
42197;BMP280;27866;48.146;17.098;2023-03-01T12:04:48;100377.31;;;18.81
42197;BMP280;27866;48.146;17.098;2023-03-01T12:26:47;100367.41;;;16.75
42197;BMP280;27866;48.146;17.098;2023-03-01T12:49:40;100351.13;;;16.01
42197;BMP280;27866;48.146;17.098;2023-03-01T12:53:55;100357.06;;;16.03
42197;BMP280;27866;48.146;17.098;2023-03-01T13:08:05;100332.06;;;16.40
42197;BMP280;27866;48.146;17.098;2023-03-01T13:17:39;100329.94;;;16.45
42197;BMP280;27866;48.146;17.098;2023-03-01T13:21:54;100317.84;;;16.53
42197;BMP280;27866;48.146;17.098;2023-03-01T13:26:17;100332.31;;;16.57
42197;BMP280;27866;48.146;17.098;2023-03-01T13:34:49;100325.94;;;17.48
42197;BMP280;27866;48.146;17.098;2023-03-01T13:39:04;100320.16;;;18.01
42197;BMP280;27866;48.146;17.098;2023-03-01T13:43:38;100316.03;;;18.27
42197;BMP280;27866;48.146;17.098;2023-03-01T13:48:32;100300.13;;;17.82
42197;BMP280;27866;48.146;17.098;2023-03-01T13:57:03;100289.53;;;18.29
42197;BMP280;27866;48.146;17.098;2023-03-01T14:01:35;100280.09;;;18.73
42197;BMP280;27866;48.146;17.098;2023-03-01T14:06:18;100282.22;;;20.00
42197;BMP280;27866;48.146;17.098;2023-03-01T14:15:44;100259.19;;;23.06
42197;BMP280;27866;48.146;17.098;2023-03-01T14:20:03;100255.78;;;23.72
42197;BMP280;27866;48.146;17.098;2023-03-01T14:24:22;100248.53;;;24.61
42197;BMP280;27866;48.146;17.098;2023-03-01T14:28:36;100244.78;;;25.20
42197;BMP280;27866;48.146;17.098;2023-03-01T14:32:59;100230.50;;;25.21
42197;BMP280;27866;48.146;17.098;2023-03-01T14:37:33;100226.84;;;25.84
42197;BMP280;27866;48.146;17.098;2023-03-01T14:41:45;100218.81;;;25.29
42197;BMP280;27866;48.146;17.098;2023-03-01T14:45:57;100219.50;;;25.52
42197;BMP280;27866;48.146;17.098;2023-03-01T14:50:28;100216.00;;;25.51
42197;BMP280;27866;48.146;17.098;2023-03-01T14:54:47;100219.81;;;25.28
42197;BMP280;27866;48.146;17.098;2023-03-01T14:58:59;100218.06;;;25.07
42197;BMP280;27866;48.146;17.098;2023-03-01T15:03:21;100205.59;;;24.52
42197;BMP280;27866;48.146;17.098;2023-03-01T15:07:40;100203.00;;;23.49
42197;BMP280;27866;48.146;17.098;2023-03-01T15:11:52;100195.31;;;20.68
42197;BMP280;27866;48.146;17.098;2023-03-01T15:16:18;100197.56;;;18.58
42197;BMP280;27866;48.146;17.098;2023-03-01T15:20:31;100204.66;;;16.91
42197;BMP280;27866;48.146;17.098;2023-03-01T15:24:49;100210.41;;;15.77
42197;BMP280;27866;48.146;17.098;2023-03-01T15:29:00;100211.84;;;14.88
42197;BMP280;27866;48.146;17.098;2023-03-01T15:33:37;100213.69;;;14.44
42197;BMP280;27866;48.146;17.098;2023-03-01T15:37:50;100213.25;;;14.05
42197;BMP280;27866;48.146;17.098;2023-03-01T15:42:01;100213.81;;;13.88
42197;BMP280;27866;48.146;17.098;2023-03-01T15:46:29;100220.31;;;13.60
42197;BMP280;27866;48.146;17.098;2023-03-01T15:50:43;100213.00;;;13.19
42197;BMP280;27866;48.146;17.098;2023-03-01T15:55:04;100213.06;;;12.95
42197;BMP280;27866;48.146;17.098;2023-03-01T15:59:17;100210.53;;;12.71
42197;BMP280;27866;48.146;17.098;2023-03-01T16:03:29;100218.13;;;12.49
42197;BMP280;27866;48.146;17.098;2023-03-01T16:07:40;100212.19;;;12.11
42197;BMP280;27866;48.146;17.098;2023-03-01T16:11:53;100215.78;;;11.85
42197;BMP280;27866;48.146;17.098;2023-03-01T16:16:05;100213.88;;;11.62
42197;BMP280;27866;48.146;17.098;2023-03-01T16:20:16;100216.84;;;11.44
42197;BMP280;27866;48.146;17.098;2023-03-01T16:24:28;100215.72;;;11.23
42197;BMP280;27866;48.146;17.098;2023-03-01T16:28:41;100220.38;;;11.04
42197;BMP280;27866;48.146;17.098;2023-03-01T16:32:53;100224.50;;;10.81
42197;BMP280;27866;48.146;17.098;2023-03-01T16:37:04;100231.84;;;10.61
42197;BMP280;27866;48.146;17.098;2023-03-01T16:41:19;100228.63;;;10.44
42197;BMP280;27866;48.146;17.098;2023-03-01T16:45:35;100228.69;;;10.29
42197;BMP280;27866;48.146;17.098;2023-03-01T16:49:46;100234.13;;;10.12
42197;BMP280;27866;48.146;17.098;2023-03-01T16:53:58;100235.78;;;9.99
42197;BMP280;27866;48.146;17.098;2023-03-01T16:58:09;100242.56;;;9.86
42197;BMP280;27866;48.146;17.098;2023-03-01T17:02:21;100242.69;;;9.70
42197;BMP280;27866;48.146;17.098;2023-03-01T17:06:32;100242.28;;;9.62
42197;BMP280;27866;48.146;17.098;2023-03-01T17:10:43;100256.50;;;9.55
42197;BMP280;27866;48.146;17.098;2023-03-01T17:14:55;100251.75;;;9.48
42197;BMP280;27866;48.146;17.098;2023-03-01T17:19:06;100258.06;;;9.43
42197;BMP280;27866;48.146;17.098;2023-03-01T17:23:17;100258.34;;;9.39
42197;BMP280;27866;48.146;17.098;2023-03-01T17:27:29;100260.44;;;9.32
42197;BMP280;27866;48.146;17.098;2023-03-01T17:31:40;100252.19;;;9.26
42197;BMP280;27866;48.146;17.098;2023-03-01T17:35:51;100261.19;;;9.19
42197;BMP280;27866;48.146;17.098;2023-03-01T17:40:03;100254.63;;;9.14
42197;BMP280;27866;48.146;17.098;2023-03-01T17:44:15;100261.88;;;9.08
42197;BMP280;27866;48.146;17.098;2023-03-01T17:48:26;100257.88;;;9.02
42197;BMP280;27866;48.146;17.098;2023-03-01T17:52:37;100253.19;;;8.94
42197;BMP280;27866;48.146;17.098;2023-03-01T17:56:49;100263.84;;;8.88
42197;BMP280;27866;48.146;17.098;2023-03-01T18:01:16;100268.34;;;8.84
42197;BMP280;27866;48.146;17.098;2023-03-01T18:05:34;100260.88;;;8.80
42197;BMP280;27866;48.146;17.098;2023-03-01T18:09:47;100267.34;;;8.72
42197;BMP280;27866;48.146;17.098;2023-03-01T18:13:58;100272.50;;;8.72
42197;BMP280;27866;48.146;17.098;2023-03-01T18:18:09;100259.84;;;8.68
42197;BMP280;27866;48.146;17.098;2023-03-01T18:22:21;100252.59;;;8.59
42197;BMP280;27866;48.146;17.098;2023-03-01T18:26:33;100251.84;;;8.57
42197;BMP280;27866;48.146;17.098;2023-03-01T18:30:44;100249.56;;;8.51
42197;BMP280;27866;48.146;17.098;2023-03-01T18:34:55;100246.47;;;8.45
42197;BMP280;27866;48.146;17.098;2023-03-01T18:39:07;100243.31;;;8.40
42197;BMP280;27866;48.146;17.098;2023-03-01T18:43:19;100238.25;;;8.39
42197;BMP280;27866;48.146;17.098;2023-03-01T18:47:30;100232.00;;;8.42
42197;BMP280;27866;48.146;17.098;2023-03-01T18:51:42;100237.47;;;8.37
42197;BMP280;27866;48.146;17.098;2023-03-01T18:55:58;100231.88;;;8.29
42197;BMP280;27866;48.146;17.098;2023-03-01T19:00:11;100243.28;;;8.25
42197;BMP280;27866;48.146;17.098;2023-03-01T19:04:22;100240.06;;;8.20
42197;BMP280;27866;48.146;17.098;2023-03-01T19:08:33;100237.59;;;8.19
42197;BMP280;27866;48.146;17.098;2023-03-01T19:12:45;100245.41;;;8.17
42197;BMP280;27866;48.146;17.098;2023-03-01T19:16:56;100232.50;;;8.17
42197;BMP280;27866;48.146;17.098;2023-03-01T19:21:10;100222.09;;;8.19
42197;BMP280;27866;48.146;17.098;2023-03-01T19:25:21;100214.38;;;8.19
42197;BMP280;27866;48.146;17.098;2023-03-01T19:29:33;100217.19;;;8.14
42197;BMP280;27866;48.146;17.098;2023-03-01T19:33:46;100216.72;;;8.07
42197;BMP280;27866;48.146;17.098;2023-03-01T19:37:57;100229.72;;;8.05
42197;BMP280;27866;48.146;17.098;2023-03-01T19:42:10;100218.72;;;8.02
42197;BMP280;27866;48.146;17.098;2023-03-01T19:46:22;100224.94;;;7.98
42197;BMP280;27866;48.146;17.098;2023-03-01T19:50:34;100230.34;;;7.94
42197;BMP280;27866;48.146;17.098;2023-03-01T19:54:45;100222.81;;;7.89
42197;BMP280;27866;48.146;17.098;2023-03-01T19:58:56;100225.63;;;7.85
42197;BMP280;27866;48.146;17.098;2023-03-01T20:03:10;100236.91;;;7.82
42197;BMP280;27866;48.146;17.098;2023-03-01T20:07:21;100231.91;;;7.80
42197;BMP280;27866;48.146;17.098;2023-03-01T20:11:33;100235.63;;;7.74
42197;BMP280;27866;48.146;17.098;2023-03-01T20:15:44;100241.00;;;7.70
42197;BMP280;27866;48.146;17.098;2023-03-01T20:19:55;100242.84;;;7.68
42197;BMP280;27866;48.146;17.098;2023-03-01T20:24:07;100252.47;;;7.65
42197;BMP280;27866;48.146;17.098;2023-03-01T20:28:18;100259.72;;;7.57
42197;BMP280;27866;48.146;17.098;2023-03-01T20:32:31;100252.97;;;7.54
42197;BMP280;27866;48.146;17.098;2023-03-01T20:36:43;100254.78;;;7.52
42197;BMP280;27866;48.146;17.098;2023-03-01T20:41:06;100263.66;;;7.47
42197;BMP280;27866;48.146;17.098;2023-03-01T20:45:18;100258.59;;;7.46
42197;BMP280;27866;48.146;17.098;2023-03-01T20:49:29;100252.69;;;7.44
42197;BMP280;27866;48.146;17.098;2023-03-01T20:53:40;100256.13;;;7.43
42197;BMP280;27866;48.146;17.098;2023-03-01T20:57:52;100260.25;;;7.47
42197;BMP280;27866;48.146;17.098;2023-03-01T21:02:03;100255.09;;;7.47
42197;BMP280;27866;48.146;17.098;2023-03-01T21:06:14;100253.44;;;7.46
42197;BMP280;27866;48.146;17.098;2023-03-01T21:10:25;100253.44;;;7.46
42197;BMP280;27866;48.146;17.098;2023-03-01T21:14:38;100255.84;;;7.49
42197;BMP280;27866;48.146;17.098;2023-03-01T21:18:52;100247.38;;;7.47
42197;BMP280;27866;48.146;17.098;2023-03-01T21:23:03;100254.88;;;7.51
42197;BMP280;27866;48.146;17.098;2023-03-01T21:27:14;100258.44;;;7.49
42197;BMP280;27866;48.146;17.098;2023-03-01T21:31:33;100248.19;;;7.47
42197;BMP280;27866;48.146;17.098;2023-03-01T21:35:44;100245.03;;;7.42
42197;BMP280;27866;48.146;17.098;2023-03-01T21:39:56;100253.72;;;7.40
42197;BMP280;27866;48.146;17.098;2023-03-01T21:44:07;100253.66;;;7.41
42197;BMP280;27866;48.146;17.098;2023-03-01T21:48:18;100252.50;;;7.47
42197;BMP280;27866;48.146;17.098;2023-03-01T21:52:30;100249.94;;;7.47
42197;BMP280;27866;48.146;17.098;2023-03-01T21:56:43;100251.06;;;7.41
42197;BMP280;27866;48.146;17.098;2023-03-01T22:00:55;100250.41;;;7.38
42197;BMP280;27866;48.146;17.098;2023-03-01T22:05:07;100254.91;;;7.33
42197;BMP280;27866;48.146;17.098;2023-03-01T22:09:21;100242.75;;;7.37
42197;BMP280;27866;48.146;17.098;2023-03-01T22:13:33;100238.47;;;7.36
42197;BMP280;27866;48.146;17.098;2023-03-01T22:17:44;100233.84;;;7.25
42197;BMP280;27866;48.146;17.098;2023-03-01T22:21:55;100234.16;;;7.20
42197;BMP280;27866;48.146;17.098;2023-03-01T22:26:08;100233.31;;;7.19
42197;BMP280;27866;48.146;17.098;2023-03-01T22:30:30;100241.03;;;7.19
42197;BMP280;27866;48.146;17.098;2023-03-01T22:34:43;100234.66;;;7.09
42197;BMP280;27866;48.146;17.098;2023-03-01T22:38:55;100233.56;;;6.97
42197;BMP280;27866;48.146;17.098;2023-03-01T22:43:10;100235.50;;;6.92
42197;BMP280;27866;48.146;17.098;2023-03-01T22:47:21;100235.66;;;6.89
42197;BMP280;27866;48.146;17.098;2023-03-01T22:51:36;100243.59;;;6.85
42197;BMP280;27866;48.146;17.098;2023-03-01T22:55:47;100234.25;;;6.82
42197;BMP280;27866;48.146;17.098;2023-03-01T22:59:59;100237.97;;;6.77
42197;BMP280;27866;48.146;17.098;2023-03-01T23:04:10;100245.69;;;6.77
42197;BMP280;27866;48.146;17.098;2023-03-01T23:08:22;100246.91;;;6.69
42197;BMP280;27866;48.146;17.098;2023-03-01T23:12:33;100249.66;;;6.66
42197;BMP280;27866;48.146;17.098;2023-03-01T23:16:45;100250.59;;;6.64
42197;BMP280;27866;48.146;17.098;2023-03-01T23:20:56;100250.84;;;6.59
42197;BMP280;27866;48.146;17.098;2023-03-01T23:25:09;100252.56;;;6.59
42197;BMP280;27866;48.146;17.098;2023-03-01T23:29:23;100251.72;;;6.58
42197;BMP280;27866;48.146;17.098;2023-03-01T23:33:34;100256.31;;;6.52
42197;BMP280;27866;48.146;17.098;2023-03-01T23:37:48;100258.19;;;6.49
42197;BMP280;27866;48.146;17.098;2023-03-01T23:42:00;100261.53;;;6.51
42197;BMP280;27866;48.146;17.098;2023-03-01T23:46:13;100256.56;;;6.46
42197;BMP280;27866;48.146;17.098;2023-03-01T23:50:25;100259.13;;;6.46
42197;BMP280;27866;48.146;17.098;2023-03-01T23:54:36;100251.31;;;6.49
42197;BMP280;27866;48.146;17.098;2023-03-01T23:58:47;100251.22;;;6.51
